createdAt,value
2023-05-07T00:01:18.028Z,15.10
2023-05-07T00:03:45.293Z,15.10
2023-05-07T00:06:13.642Z,15.10
2023-05-07T00:08:40.368Z,15.10
2023-05-07T00:11:07.155Z,15.00
2023-05-07T00:13:36.572Z,15.00
2023-05-07T00:16:04.182Z,15.00
2023-05-07T00:18:31.216Z,15.00
2023-05-07T00:20:57.942Z,15.00
2023-05-07T00:23:24.863Z,15.00
2023-05-07T00:25:51.543Z,14.90
2023-05-07T00:28:18.208Z,14.90
2023-05-07T00:30:44.953Z,15.00
2023-05-07T00:33:11.829Z,14.90
2023-05-07T00:35:38.567Z,14.90
2023-05-07T00:38:05.392Z,15.00
2023-05-07T00:40:32.161Z,15.00
2023-05-07T00:42:59.248Z,15.00
2023-05-07T00:45:29.939Z,15.00
2023-05-07T00:47:58.768Z,15.00
2023-05-07T00:50:26.956Z,15.00
2023-05-07T00:52:54.433Z,15.00
2023-05-07T00:55:21.625Z,15.00
2023-05-07T00:57:48.488Z,15.00
2023-05-07T01:00:15.545Z,15.00
2023-05-07T01:02:43.640Z,15.10
2023-05-07T01:05:13.649Z,15.00
2023-05-07T01:07:42.442Z,15.10
2023-05-07T01:10:10.666Z,15.00
2023-05-07T01:12:40.337Z,15.00
2023-05-07T01:15:09.436Z,15.10
2023-05-07T01:17:42.844Z,15.00
2023-05-07T01:20:11.617Z,15.00
2023-05-07T01:22:39.541Z,15.10
2023-05-07T01:25:08.274Z,15.00
2023-05-07T01:27:36.455Z,15.00
2023-05-07T01:30:03.648Z,15.00
2023-05-07T01:32:39.084Z,15.00
2023-05-07T01:35:10.696Z,14.90
2023-05-07T01:37:39.542Z,15.00
2023-05-07T01:40:08.165Z,15.00
2023-05-07T01:42:34.951Z,14.90
2023-05-07T01:45:01.651Z,14.90
2023-05-07T01:47:29.424Z,14.90
2023-05-07T01:49:57.051Z,14.90
2023-05-07T01:52:23.892Z,14.90
2023-05-07T01:54:51.102Z,14.90
2023-05-07T01:57:17.789Z,14.90
2023-05-07T01:59:44.666Z,14.90
2023-05-07T02:02:11.512Z,14.90
2023-05-07T02:04:38.321Z,14.90
2023-05-07T02:07:05.305Z,15.10
2023-05-07T02:09:32.145Z,14.90
2023-05-07T02:11:58.852Z,14.90
2023-05-07T02:14:27.059Z,14.80
2023-05-07T02:16:53.892Z,14.80
2023-05-07T02:19:22.152Z,14.80
2023-05-07T02:21:49.226Z,14.70
2023-05-07T02:24:15.914Z,14.70
2023-05-07T02:26:42.604Z,14.70
2023-05-07T02:29:09.514Z,14.70
2023-05-07T02:31:36.226Z,14.70
2023-05-07T02:34:03.185Z,14.60
2023-05-07T02:36:29.914Z,14.60
2023-05-07T02:38:56.794Z,14.60
2023-05-07T02:41:23.452Z,14.50
2023-05-07T02:43:50.245Z,14.50
2023-05-07T02:46:17.042Z,14.50
2023-05-07T02:48:44.011Z,14.40
2023-05-07T02:51:10.914Z,14.40
2023-05-07T02:53:37.723Z,14.40
2023-05-07T02:56:04.628Z,14.40
2023-05-07T02:58:31.403Z,14.30
2023-05-07T03:00:58.355Z,14.20
2023-05-07T03:03:25.270Z,14.30
2023-05-07T03:05:52.201Z,14.30
2023-05-07T03:08:18.978Z,14.30
2023-05-07T03:10:45.804Z,14.20
2023-05-07T03:13:12.533Z,14.20
2023-05-07T03:15:39.287Z,14.20
2023-05-07T03:18:06.358Z,14.30
2023-05-07T03:20:34.539Z,14.30
2023-05-07T03:23:01.284Z,14.30
2023-05-07T03:25:28.248Z,14.40
2023-05-07T03:27:54.924Z,14.40
2023-05-07T03:30:21.770Z,14.40
2023-05-07T03:32:48.563Z,14.40
2023-05-07T03:35:15.634Z,14.40
2023-05-07T03:37:42.426Z,14.40
2023-05-07T03:40:11.491Z,14.40
2023-05-07T03:42:38.598Z,14.40
2023-05-07T03:45:06.199Z,14.40
2023-05-07T03:47:32.899Z,14.40
2023-05-07T03:50:00.454Z,14.30
2023-05-07T03:52:27.242Z,14.30
2023-05-07T03:54:54.571Z,14.30
2023-05-07T03:57:21.556Z,14.30
2023-05-07T03:59:48.381Z,14.20
2023-05-07T04:02:15.272Z,14.30
2023-05-07T04:04:42.041Z,14.30
2023-05-07T04:07:08.809Z,14.30
2023-05-07T04:09:35.508Z,14.30
2023-05-07T04:12:02.578Z,14.30
2023-05-07T04:14:29.294Z,14.30
2023-05-07T04:16:56.154Z,14.30
2023-05-07T04:19:22.877Z,14.30
2023-05-07T04:21:49.508Z,14.30
2023-05-07T04:24:16.216Z,14.30
2023-05-07T04:26:42.905Z,14.20
2023-05-07T04:29:09.564Z,14.30
2023-05-07T04:31:36.364Z,14.20
2023-05-07T04:34:04.137Z,14.30
2023-05-07T04:36:31.776Z,14.30
2023-05-07T04:38:58.612Z,14.30
2023-05-07T04:41:26.354Z,14.30
2023-05-07T04:43:53.238Z,14.20
2023-05-07T04:46:20.307Z,14.30
2023-05-07T04:48:47.117Z,14.30
2023-05-07T04:51:13.811Z,14.20
2023-05-07T04:53:41.707Z,14.20
2023-05-07T04:56:08.384Z,14.20
2023-05-07T04:58:35.374Z,14.20
2023-05-07T05:01:03.060Z,14.30
2023-05-07T05:03:31.098Z,14.30
2023-05-07T05:06:00.380Z,14.30
2023-05-07T05:08:27.569Z,14.60
2023-05-07T05:10:54.441Z,14.40
2023-05-07T05:13:21.380Z,13.90
2023-05-07T05:15:48.188Z,14.30
2023-05-07T05:18:14.896Z,14.40
2023-05-07T05:20:41.546Z,14.40
2023-05-07T05:23:09.334Z,14.40
2023-05-07T05:25:35.997Z,14.40
2023-05-07T05:28:02.929Z,14.40
2023-05-07T05:30:29.606Z,14.40
2023-05-07T05:32:56.336Z,14.40
2023-05-07T05:35:23.051Z,14.50
2023-05-07T05:37:49.850Z,14.50
2023-05-07T05:40:16.569Z,14.50
2023-05-07T05:42:43.232Z,14.50
2023-05-07T05:45:10.441Z,14.50
2023-05-07T05:47:38.104Z,14.50
2023-05-07T05:50:06.960Z,14.50
2023-05-07T05:52:33.630Z,14.60
2023-05-07T05:55:00.304Z,14.60
2023-05-07T05:57:28.610Z,14.60
2023-05-07T05:59:55.946Z,14.60
2023-05-07T06:02:25.811Z,14.60
2023-05-07T06:04:52.805Z,14.60
2023-05-07T06:07:19.662Z,14.70
2023-05-07T06:09:46.325Z,14.70
2023-05-07T06:12:13.280Z,14.70
2023-05-07T06:14:40.126Z,14.70
2023-05-07T06:17:07.869Z,14.70
2023-05-07T06:19:34.538Z,14.70
2023-05-07T06:22:02.898Z,14.70
2023-05-07T06:24:29.929Z,14.80
2023-05-07T06:26:56.963Z,14.80
2023-05-07T06:29:23.963Z,14.80
2023-05-07T06:31:50.828Z,14.80
2023-05-07T06:34:20.788Z,14.80
2023-05-07T06:36:47.492Z,14.70
2023-05-07T06:39:14.216Z,14.70
2023-05-07T06:41:41.037Z,14.70
2023-05-07T06:44:09.696Z,14.70
2023-05-07T06:46:36.674Z,14.80
2023-05-07T06:49:03.698Z,14.70
2023-05-07T06:51:31.097Z,14.80
2023-05-07T06:53:57.839Z,14.80
2023-05-07T06:56:24.723Z,14.90
2023-05-07T06:58:51.595Z,14.90
2023-05-07T07:01:18.348Z,14.90
2023-05-07T07:03:45.065Z,15.00
2023-05-07T07:06:11.704Z,15.00
2023-05-07T07:08:39.789Z,15.10
2023-05-07T07:11:07.309Z,15.20
2023-05-07T07:13:34.143Z,15.40
2023-05-07T07:16:01.344Z,15.50
2023-05-07T07:18:28.270Z,15.70
2023-05-07T07:20:55.012Z,15.70
2023-05-07T07:23:21.937Z,15.70
2023-05-07T07:25:48.765Z,15.70
2023-05-07T07:28:15.520Z,15.60
2023-05-07T07:30:42.288Z,15.60
2023-05-07T07:33:17.256Z,15.60
2023-05-07T07:35:43.919Z,15.60
2023-05-07T07:38:10.623Z,15.70
2023-05-07T07:40:37.367Z,15.70
2023-05-07T07:43:04.106Z,15.80
2023-05-07T07:45:30.883Z,16.00
2023-05-07T07:47:57.641Z,16.00
2023-05-07T07:50:40.010Z,16.10
2023-05-07T07:53:10.812Z,16.10
2023-05-07T07:55:41.557Z,16.00
2023-05-07T07:58:08.230Z,16.10
2023-05-07T08:00:34.909Z,16.20
2023-05-07T08:03:02.282Z,16.50
2023-05-07T08:05:29.103Z,16.80
2023-05-07T08:07:55.793Z,17.10
2023-05-07T08:10:22.980Z,17.50
2023-05-07T08:12:50.809Z,17.70
2023-05-07T08:15:18.230Z,17.90
2023-05-07T08:17:44.982Z,18.10
2023-05-07T08:20:11.964Z,18.20
2023-05-07T08:22:38.862Z,18.30
2023-05-07T08:25:06.016Z,18.30
2023-05-07T08:27:32.696Z,18.40
2023-05-07T08:29:59.803Z,18.50
2023-05-07T08:32:27.042Z,18.60
2023-05-07T08:34:53.749Z,18.80
2023-05-07T08:37:20.664Z,18.90
2023-05-07T08:39:47.669Z,19.00
2023-05-07T08:42:17.784Z,19.00
2023-05-07T08:44:49.817Z,19.10
2023-05-07T08:47:17.412Z,18.90
2023-05-07T08:49:44.512Z,18.90
2023-05-07T08:52:13.549Z,18.80
2023-05-07T08:54:40.457Z,18.70
2023-05-07T08:57:07.219Z,18.70
2023-05-07T08:59:34.087Z,18.70
2023-05-07T09:02:00.948Z,18.80
2023-05-07T09:04:28.721Z,18.80
2023-05-07T09:06:56.267Z,18.90
2023-05-07T09:09:23.185Z,18.90
2023-05-07T09:11:49.945Z,18.90
2023-05-07T09:14:16.701Z,19.00
2023-05-07T09:16:43.509Z,19.20
2023-05-07T09:19:10.548Z,19.40
2023-05-07T09:21:37.393Z,19.40
2023-05-07T09:24:04.168Z,19.50
2023-05-07T09:26:32.194Z,19.60
2023-05-07T09:28:58.873Z,19.80
2023-05-07T09:31:26.986Z,19.80
2023-05-07T09:33:54.341Z,19.90
2023-05-07T09:36:21.154Z,19.70
2023-05-07T09:38:48.028Z,19.80
2023-05-07T09:41:14.761Z,19.80
2023-05-07T09:43:42.074Z,19.70
2023-05-07T09:46:16.348Z,19.70
2023-05-07T09:48:44.571Z,19.60
2023-05-07T09:51:40.237Z,19.60
2023-05-07T09:54:08.079Z,19.60
2023-05-07T09:56:35.198Z,19.60
2023-05-07T09:59:02.265Z,19.50
2023-05-07T10:01:31.776Z,19.50
2023-05-07T10:03:59.375Z,19.50
2023-05-07T10:06:26.811Z,19.30
2023-05-07T10:08:54.483Z,19.20
2023-05-07T10:11:23.093Z,19.20
2023-05-07T10:13:50.971Z,19.20
2023-05-07T10:16:18.906Z,19.20
2023-05-07T10:18:47.200Z,19.20
2023-05-07T10:21:21.965Z,19.00
2023-05-07T10:24:20.553Z,19.00
2023-05-07T10:26:50.843Z,19.00
2023-05-07T10:29:45.638Z,19.00
2023-05-07T10:32:16.026Z,19.00
2023-05-07T10:34:46.958Z,18.90
2023-05-07T10:37:14.175Z,19.00
2023-05-07T10:39:42.285Z,19.00
2023-05-07T10:42:13.574Z,19.00
2023-05-07T10:44:40.581Z,19.10
2023-05-07T10:47:12.949Z,19.20
2023-05-07T10:49:43.021Z,19.20
2023-05-07T10:52:14.739Z,19.20
2023-05-07T10:54:41.812Z,19.30
2023-05-07T10:57:44.594Z,19.30
2023-05-07T11:00:42.125Z,19.40
2023-05-07T11:03:09.509Z,19.50
2023-05-07T11:05:38.540Z,19.60
2023-05-07T11:08:07.397Z,19.70
2023-05-07T11:10:54.986Z,19.70
2023-05-07T11:13:50.630Z,19.90
2023-05-07T11:16:25.780Z,20.00
2023-05-07T11:18:54.590Z,20.10
2023-05-07T11:21:41.322Z,20.20
2023-05-07T11:24:09.646Z,20.40
2023-05-07T11:26:48.692Z,20.60
2023-05-07T11:29:22.207Z,20.70
2023-05-07T11:31:54.009Z,21.00
2023-05-07T11:34:25.135Z,21.10
2023-05-07T11:36:52.614Z,21.80
2023-05-07T11:39:27.069Z,21.40
2023-05-07T11:41:53.876Z,21.60
2023-05-07T11:44:20.711Z,22.20
2023-05-07T11:46:47.542Z,21.90
2023-05-07T11:49:14.342Z,22.00
2023-05-07T11:51:42.858Z,22.00
2023-05-07T11:54:12.222Z,22.10
2023-05-07T11:56:39.715Z,22.10
2023-05-07T11:59:07.255Z,22.30
2023-05-07T12:01:37.093Z,22.30
2023-05-07T12:04:05.564Z,22.20
2023-05-07T12:06:32.357Z,22.20
2023-05-07T12:09:02.768Z,22.30
2023-05-07T12:11:29.516Z,22.40
2023-05-07T12:13:59.690Z,22.50
2023-05-07T12:16:27.885Z,22.80
2023-05-07T12:18:56.134Z,23.20
2023-05-07T12:21:23.329Z,23.30
2023-05-07T12:23:50.214Z,23.40
2023-05-07T12:26:16.972Z,23.50
2023-05-07T12:28:43.821Z,23.60
2023-05-07T12:31:11.495Z,23.70
2023-05-07T12:33:38.728Z,23.70
2023-05-07T12:36:08.972Z,23.60
2023-05-07T12:38:38.088Z,23.50
2023-05-07T12:41:06.007Z,23.40
2023-05-07T12:43:32.798Z,23.40
2023-05-07T12:46:02.778Z,23.30
2023-05-07T12:48:30.123Z,23.20
2023-05-07T12:50:58.186Z,23.30
2023-05-07T12:53:27.282Z,23.40
2023-05-07T12:55:56.705Z,23.50
2023-05-07T12:58:28.938Z,23.50
2023-05-07T13:01:00.607Z,23.50
2023-05-07T13:03:33.356Z,23.60
2023-05-07T13:06:03.263Z,23.60
2023-05-07T13:08:35.068Z,23.60
2023-05-07T13:11:04.779Z,23.60
2023-05-07T13:13:32.919Z,23.60
2023-05-07T13:16:01.431Z,23.60
2023-05-07T13:18:30.247Z,23.70
2023-05-07T13:20:57.950Z,23.70
2023-05-07T13:23:25.997Z,23.70
2023-05-07T13:25:54.901Z,23.70
2023-05-07T13:28:22.163Z,23.80
2023-05-07T13:30:49.159Z,23.70
2023-05-07T13:33:16.997Z,23.70
2023-05-07T13:35:43.785Z,23.60
2023-05-07T13:38:10.624Z,23.50
2023-05-07T13:40:37.636Z,23.40
2023-05-07T13:43:06.503Z,23.30
2023-05-07T13:45:33.325Z,23.10
2023-05-07T13:48:00.479Z,23.10
2023-05-07T13:50:28.245Z,23.10
2023-05-07T13:52:55.046Z,23.20
2023-05-07T13:55:23.497Z,23.20
2023-05-07T13:58:00.568Z,23.30
2023-05-07T14:00:28.567Z,23.30
2023-05-07T14:02:56.503Z,23.40
2023-05-07T14:05:24.437Z,23.40
2023-05-07T14:07:52.919Z,23.40
2023-05-07T14:10:20.515Z,23.40
2023-05-07T14:12:48.035Z,23.40
2023-05-07T14:15:15.434Z,23.50
2023-05-07T14:17:42.228Z,23.50
2023-05-07T14:20:10.307Z,23.60
2023-05-07T14:22:37.569Z,23.50
2023-05-07T14:25:14.437Z,23.40
2023-05-07T14:27:41.421Z,23.30
2023-05-07T14:30:12.809Z,23.30
2023-05-07T14:32:39.627Z,23.20
2023-05-07T14:35:06.723Z,23.20
2023-05-07T14:37:33.432Z,23.10
2023-05-07T14:40:00.155Z,23.00
2023-05-07T14:42:26.906Z,22.90
2023-05-07T14:44:54.174Z,22.80
2023-05-07T14:47:21.305Z,22.80
2023-05-07T14:49:49.214Z,22.70
2023-05-07T14:52:16.906Z,22.70
2023-05-07T14:54:43.742Z,22.70
2023-05-07T14:57:14.262Z,22.40
2023-05-07T14:59:41.221Z,22.30
2023-05-07T15:02:09.313Z,22.20
2023-05-07T15:04:36.434Z,22.20
2023-05-07T15:07:03.171Z,22.00
2023-05-07T15:09:30.754Z,22.00
2023-05-07T15:11:57.585Z,21.90
2023-05-07T15:14:24.334Z,21.80
2023-05-07T15:16:51.069Z,21.70
2023-05-07T15:19:18.157Z,21.60
2023-05-07T15:21:45.292Z,21.50
2023-05-07T15:24:13.340Z,21.40
2023-05-07T15:26:40.036Z,21.30
2023-05-07T15:29:11.323Z,21.10
2023-05-07T15:31:41.612Z,20.90
2023-05-07T15:34:08.405Z,20.70
2023-05-07T15:36:35.312Z,20.60
2023-05-07T15:39:03.901Z,20.50
2023-05-07T15:41:30.939Z,20.40
2023-05-07T15:43:57.890Z,20.30
2023-05-07T15:46:25.775Z,20.20
2023-05-07T15:48:53.689Z,20.20
2023-05-07T15:51:21.136Z,20.00
2023-05-07T15:53:48.204Z,20.00
2023-05-07T15:56:15.180Z,19.90
2023-05-07T15:58:41.910Z,19.90
2023-05-07T16:01:08.716Z,19.80
2023-05-07T16:03:35.605Z,19.60
2023-05-07T16:06:02.562Z,19.40
2023-05-07T16:08:29.517Z,19.20
2023-05-07T16:10:56.365Z,19.00
2023-05-07T16:13:24.980Z,18.80
2023-05-07T16:15:58.516Z,18.60
2023-05-07T16:18:25.631Z,18.40
2023-05-07T16:20:52.605Z,18.30
2023-05-07T16:23:19.464Z,18.20
2023-05-07T16:25:46.503Z,18.00
2023-05-07T16:28:14.234Z,17.90
2023-05-07T16:30:41.019Z,17.90
2023-05-07T16:33:08.204Z,17.90
2023-05-07T16:35:34.939Z,17.90
2023-05-07T16:38:01.620Z,17.90
2023-05-07T16:40:28.412Z,17.90
2023-05-07T16:42:55.695Z,17.90
2023-05-07T16:45:23.353Z,17.90
2023-05-07T16:47:50.219Z,17.90
2023-05-07T16:50:17.131Z,17.90
2023-05-07T16:52:43.896Z,17.90
2023-05-07T16:55:11.035Z,17.80
2023-05-07T16:57:38.183Z,17.90
2023-05-07T17:00:07.782Z,17.80
2023-05-07T17:02:37.551Z,17.90
2023-05-07T17:05:06.392Z,17.80
2023-05-07T17:07:33.178Z,17.80
2023-05-07T17:09:59.968Z,17.80
2023-05-07T17:12:27.030Z,17.80
2023-05-07T17:14:54.185Z,17.70
2023-05-07T17:17:21.010Z,17.70
2023-05-07T17:19:47.850Z,17.60
2023-05-07T17:22:14.672Z,17.50
2023-05-07T17:24:41.436Z,17.40
2023-05-07T17:27:08.246Z,17.40
2023-05-07T17:29:35.101Z,17.40
2023-05-07T17:32:01.918Z,17.40
2023-05-07T17:34:28.849Z,17.40
2023-05-07T17:36:56.248Z,17.40
2023-05-07T17:39:23.043Z,17.40
2023-05-07T17:41:49.750Z,17.50
2023-05-07T17:44:16.609Z,17.50
2023-05-07T17:46:43.280Z,17.50
2023-05-07T17:49:10.042Z,17.50
2023-05-07T17:51:50.294Z,17.60
2023-05-07T17:54:21.664Z,17.60
2023-05-07T17:56:48.437Z,17.60
2023-05-07T17:59:15.322Z,17.60
2023-05-07T18:01:44.314Z,17.60
2023-05-07T18:04:11.191Z,17.60
2023-05-07T18:06:38.852Z,17.60
2023-05-07T18:09:05.824Z,17.50
2023-05-07T18:11:33.611Z,17.50
2023-05-07T18:14:01.105Z,17.60
2023-05-07T18:16:27.918Z,17.60
2023-05-07T18:18:56.069Z,17.60
2023-05-07T18:21:22.855Z,17.60
2023-05-07T18:23:49.788Z,17.60
2023-05-07T18:26:17.053Z,17.60
2023-05-07T18:29:04.653Z,17.60
2023-05-07T18:31:31.514Z,17.60
2023-05-07T18:33:58.313Z,17.50
2023-05-07T18:36:25.190Z,17.50
2023-05-07T18:38:52.558Z,17.50
2023-05-07T18:41:19.343Z,17.50
2023-05-07T18:43:46.200Z,17.40
2023-05-07T18:46:13.018Z,17.30
2023-05-07T18:48:39.856Z,17.40
2023-05-07T18:51:08.485Z,17.30
2023-05-07T18:53:35.289Z,17.30
2023-05-07T18:56:02.013Z,17.30
2023-05-07T18:58:28.780Z,17.20
2023-05-07T19:00:55.880Z,17.20
2023-05-07T19:03:22.694Z,17.20
2023-05-07T19:05:50.329Z,17.10
2023-05-07T19:08:16.989Z,17.10
2023-05-07T19:10:44.965Z,17.10
2023-05-07T19:13:11.951Z,17.10
2023-05-07T19:15:38.840Z,17.10
2023-05-07T19:18:05.597Z,17.10
2023-05-07T19:20:32.340Z,17.10
2023-05-07T19:22:59.349Z,17.10
2023-05-07T19:25:26.062Z,17.10
2023-05-07T19:27:52.751Z,17.10
2023-05-07T19:30:19.539Z,17.00
2023-05-07T19:32:46.358Z,17.00
2023-05-07T19:35:13.343Z,17.00
2023-05-07T19:37:40.393Z,16.90
2023-05-07T19:40:08.757Z,17.00
2023-05-07T19:42:35.506Z,16.90
2023-05-07T19:45:04.379Z,16.90
2023-05-07T19:47:31.464Z,16.90
2023-05-07T19:49:58.263Z,16.90
2023-05-07T19:52:26.369Z,17.00
2023-05-07T19:54:53.117Z,16.90
2023-05-07T19:57:19.811Z,16.80
2023-05-07T19:59:49.336Z,16.90
2023-05-07T20:02:16.565Z,16.90
2023-05-07T20:04:43.387Z,16.90
2023-05-07T20:07:10.072Z,16.80
2023-05-07T20:09:36.767Z,16.80
2023-05-07T20:12:03.658Z,16.80
2023-05-07T20:14:30.399Z,16.80
2023-05-07T20:16:57.109Z,16.80
2023-05-07T20:19:23.906Z,16.80
2023-05-07T20:21:50.661Z,16.70
2023-05-07T20:24:19.186Z,16.70
2023-05-07T20:26:46.565Z,16.80
2023-05-07T20:29:13.299Z,16.70
2023-05-07T20:31:40.295Z,16.70
2023-05-07T20:34:07.430Z,16.70
2023-05-07T20:36:34.289Z,16.80
2023-05-07T20:39:00.962Z,16.70
2023-05-07T20:41:27.737Z,16.70
2023-05-07T20:43:54.462Z,16.70
2023-05-07T20:46:22.555Z,16.70
2023-05-07T20:48:51.024Z,16.60
2023-05-07T20:51:17.686Z,16.60
2023-05-07T20:53:46.134Z,16.60
2023-05-07T20:56:14.656Z,16.60
2023-05-07T20:58:41.335Z,16.60
2023-05-07T21:01:08.076Z,16.60
2023-05-07T21:03:34.801Z,16.50
2023-05-07T21:06:01.578Z,16.60
2023-05-07T21:08:31.312Z,16.50
2023-05-07T21:10:59.180Z,16.50
2023-05-07T21:13:26.000Z,16.50
2023-05-07T21:15:53.101Z,16.50
2023-05-07T21:18:20.072Z,16.50
2023-05-07T21:20:46.828Z,16.50
2023-05-07T21:23:13.474Z,16.40
2023-05-07T21:25:41.390Z,16.40
2023-05-07T21:28:08.923Z,16.40
2023-05-07T21:30:36.820Z,16.30
2023-05-07T21:33:05.601Z,16.30
2023-05-07T21:35:35.233Z,16.30
2023-05-07T21:38:02.877Z,16.30
2023-05-07T21:40:29.911Z,16.30
2023-05-07T21:42:56.624Z,16.30
2023-05-07T21:45:23.320Z,16.40
2023-05-07T21:47:50.084Z,16.30
2023-05-07T21:50:17.064Z,16.20
2023-05-07T21:52:43.935Z,16.30
2023-05-07T21:55:11.005Z,16.30
2023-05-07T21:57:41.894Z,16.30
2023-05-07T22:00:11.402Z,16.40
2023-05-07T22:02:38.544Z,16.30
2023-05-07T22:05:06.058Z,16.20
2023-05-07T22:07:32.746Z,16.20
2023-05-07T22:09:59.430Z,16.20
2023-05-07T22:12:26.332Z,16.20
2023-05-07T22:14:53.003Z,16.20
2023-05-07T22:17:20.078Z,16.10
2023-05-07T22:19:46.764Z,16.20
2023-05-07T22:22:13.419Z,16.10
2023-05-07T22:24:40.073Z,16.10
2023-05-07T22:27:06.744Z,16.10
2023-05-07T22:29:33.447Z,16.00
2023-05-07T22:32:00.271Z,15.90
2023-05-07T22:34:27.040Z,15.90
2023-05-07T22:36:53.689Z,15.90
2023-05-07T22:39:20.416Z,15.90
2023-05-07T22:41:47.172Z,15.90
2023-05-07T22:44:14.026Z,15.80
2023-05-07T22:46:40.932Z,15.80
2023-05-07T22:49:07.595Z,15.80
2023-05-07T22:51:34.382Z,15.80
2023-05-07T22:54:01.064Z,15.70
2023-05-07T22:56:27.752Z,15.70
2023-05-07T22:58:54.467Z,15.80
2023-05-07T23:01:21.199Z,15.80
2023-05-07T23:03:47.953Z,15.70
2023-05-07T23:06:14.753Z,15.80
2023-05-07T23:08:41.391Z,15.70
2023-05-07T23:11:08.064Z,15.70
2023-05-07T23:13:35.050Z,15.70
2023-05-07T23:16:01.725Z,15.70
2023-05-07T23:18:30.263Z,15.70
2023-05-07T23:20:57.003Z,15.70
2023-05-07T23:23:23.682Z,15.70
2023-05-07T23:25:53.319Z,15.70
2023-05-07T23:28:20.069Z,15.70
2023-05-07T23:30:46.920Z,15.70
2023-05-07T23:33:13.620Z,15.70
2023-05-07T23:35:40.388Z,15.60
2023-05-07T23:38:07.688Z,15.60
2023-05-07T23:40:34.747Z,15.50
2023-05-07T23:43:01.600Z,15.40
2023-05-07T23:45:28.361Z,15.50
2023-05-07T23:47:55.307Z,15.60
2023-05-07T23:50:25.286Z,15.40
2023-05-07T23:52:52.093Z,15.40
2023-05-07T23:55:18.863Z,15.40
2023-05-07T23:57:45.568Z,15.40
